Aeroporto :
LOGIN :

Iscrizione | Disclaimer

   EN    FR    IT 

 










Sommario :    VFR   VFR Marginale   IFR   IFR Intensivo   IFR Molto Intensivo
Visibilità : 
Base nubi : 
>= 8 km
>= 3000ft
5 / 8 km
1000 / 3000 ft
1500m / 5 km
500 / 1000 ft
800 / 1500m
200 / 500 ft
< 800m
< 200 ft
Simboli :   Temporali  Nebbia  Neve Forte  Precipitazioni Forti  Vento > 20 kt
SIGMETs :   Varie  Temporali  Ghiacco  Turbolenza  Onda orograficha  Ceneri Vulcaniche






- Altitudine del aeroporto : 309 ft
- Codice IATA : FNI


LFTW - Nîmes Garons

ULTIMO METAR :
  • 220800Z AUTO 32010KT 280V340 CAVOK 23/11 Q1017 BECMG 30015G25KT

METARs OBSOLETI :
  • 220730Z AUTO 29008KT 250V330 CAVOK 23/13 Q1018 BECMG 30015G25KT
  • 220700Z AUTO 28008KT 230V320 CAVOK 22/13 Q1018 NOSIG
  • 220630Z AUTO 28007KT 250V310 CAVOK 21/13 Q1017 NOSIG
  • 220600Z AUTO 27007KT CAVOK 20/13 Q1017 NOSIG
  • 220530Z AUTO 27006KT CAVOK 19/13 Q1017 NOSIG
  • 220500Z AUTO 27005KT CAVOK 18/13 Q1017 NOSIG
  • 220430Z AUTO 26007KT CAVOK 17/12 Q1017 NOSIG
  • 220400Z AUTO 28007KT CAVOK 17/12 Q1017 NOSIG
  • 220330Z AUTO 29005KT CAVOK 17/12 Q1017 NOSIG

TAF TAF LFTW
Valido dal 22 a 03 ore il 23 a 03 ore UTC


220200Z 2203/2303 VRB03KT CAVOK
BECMG 2203/2205 30010KT
BECMG 2209/2211 30015G25KT
TEMPO 2212/2215 31020G35KT
BECMG 2221/2223 32010KT



MetMap, La meteo Aeronautica in un colpo d'occhio ! - Copyright ORBIFLY Dicembre 2007 - Disclaimer

ORBIFLY MET'MAP TEAM :

Programmazione e sviluppo : Alexandra Zaïnal
Concezione : Baudouin d'Aumeries
Supporto tecnico e logistico : Manuel Goepfert
Aiuto : Marc-Olivier Méhu
Aiuto per la traduzione : Arnaldo La Scala




FONTI E CREDITI :

   NOAA